Time;durP1;ratioP1;P1;durP2;ratioP2;P2;SDS_P1;SDS_P2;PMS_P1;PMS_P2;Temp;Humidity;BMP_temperature;BMP_pressure;BME280_temperature;BME280_humidity;BME280_pressure;Samples;Min_cycle;Max_cycle;Signal;HPM_P1;HPM_P2
2022/04/03 00:00:58;;;;;;;4.33;3.93;;;;;20.80;101015.00;;;;2079392;28;20244;-50
2022/04/03 00:01:59;;;;;;;5.03;3.83;;;;;20.80;101019.00;;;;2079029;28;20218;-50
2022/04/03 00:03:00;;;;;;;5.17;3.90;;;;;20.80;101010.00;;;;2079218;28;20206;-51
2022/04/03 00:04:00;;;;;;;4.40;3.67;;;;;20.80;101012.00;;;;2079020;28;20206;-52
2022/04/03 00:05:01;;;;;;;4.10;3.70;;;;;20.80;101020.00;;;;2078961;28;20372;-52
2022/04/03 00:06:01;;;;;;;4.60;3.60;;;;;20.80;101021.00;;;;2078217;28;20213;-50
2022/04/03 00:07:02;;;;;;;4.40;3.57;;;;;20.80;101013.00;;;;2079027;28;20218;-49
2022/04/03 00:08:02;;;;;;;3.90;3.57;;;;;20.80;101010.00;;;;2078959;28;20251;-51
2022/04/03 00:09:02;;;;;;;5.60;4.40;;;;;20.80;101017.00;;;;2078994;28;20222;-51
2022/04/03 00:10:03;;;;;;;4.50;3.53;;;;;20.80;101015.00;;;;2078759;28;20629;-50
2022/04/03 00:11:03;;;;;;;4.27;3.87;;;;;20.80;101011.00;;;;2078319;28;20239;-50
2022/04/03 00:12:04;;;;;;;4.00;3.30;;;;;20.80;101013.00;;;;2078018;28;20221;-51
2022/04/03 00:13:04;;;;;;;4.63;3.53;;;;;20.80;101013.00;;;;2077745;28;20221;-50
2022/04/03 00:14:05;;;;;;;3.60;3.30;;;;;20.80;101016.00;;;;2077746;28;20716;-50
2022/04/03 00:15:05;;;;;;;4.70;3.77;;;;;20.80;101015.00;;;;2078121;28;20687;-50
2022/04/03 00:16:06;;;;;;;4.40;3.77;;;;;20.80;101015.00;;;;2077837;28;20311;-50
2022/04/03 00:17:06;;;;;;;4.73;3.80;;;;;20.70;101014.00;;;;2078193;28;20221;-55
2022/04/03 00:18:07;;;;;;;4.50;3.90;;;;;20.70;101018.00;;;;2078952;28;20209;-52
2022/04/03 00:19:08;;;;;;;4.18;3.70;;;;;20.70;101010.00;;;;2075535;28;20348;-49
2022/04/03 00:20:09;;;;;;;3.50;3.20;;;;;20.70;101014.00;;;;2078973;28;20741;-51
2022/04/03 00:21:12;;;;;;;3.58;3.15;;;;;20.70;101017.00;;;;2078891;28;20228;-50
2022/04/03 00:22:12;;;;;;;4.53;3.80;;;;;20.70;101012.00;;;;2078972;28;20678;-50
2022/04/03 00:23:13;;;;;;;3.57;3.17;;;;;20.70;101000.00;;;;2078168;28;20225;-50
2022/04/03 00:24:13;;;;;;;3.90;3.33;;;;;20.70;101015.00;;;;2078042;28;20701;-50
2022/04/03 00:25:14;;;;;;;3.40;3.10;;;;;20.70;101019.00;;;;2078970;28;20584;-49
2022/04/03 00:26:15;;;;;;;3.75;3.03;;;;;20.70;101018.00;;;;2078210;28;20218;-50
2022/04/03 00:27:15;;;;;;;3.37;3.03;;;;;20.70;101012.00;;;;2078746;28;20213;-50
2022/04/03 00:28:15;;;;;;;3.60;2.90;;;;;20.70;101010.00;;;;2078889;28;20233;-50
2022/04/03 00:29:16;;;;;;;3.53;3.20;;;;;20.70;101014.00;;;;2078966;28;20220;-50
2022/04/03 00:30:16;;;;;;;3.00;2.80;;;;;20.70;101015.00;;;;2078913;28;20743;-50
2022/04/03 00:31:17;;;;;;;4.20;2.77;;;;;20.70;101019.00;;;;2074300;28;21066;-50
2022/04/03 00:32:17;;;;;;;5.00;3.03;;;;;20.70;101026.00;;;;2070690;28;20214;-50
2022/04/03 00:33:17;;;;;;;3.13;2.90;;;;;20.70;101020.00;;;;2070866;28;20210;-50
2022/04/03 00:34:17;;;;;;;3.67;3.37;;;;;20.70;101017.00;;;;2070615;28;20833;-50
2022/04/03 00:35:20;;;;;;;4.77;3.40;;;;;20.70;101017.00;;;;2070402;28;20602;-50
2022/04/03 00:36:20;;;;;;;3.25;2.95;;;;;20.60;101012.00;;;;2070581;28;20214;-50
2022/04/03 00:37:20;;;;;;;3.10;2.90;;;;;20.60;101020.00;;;;2069979;28;20631;-50
2022/04/03 00:38:21;;;;;;;3.83;2.87;;;;;20.60;101022.00;;;;2070658;28;20313;-50
2022/04/03 00:39:22;;;;;;;4.27;3.10;;;;;20.60;101018.00;;;;2069133;28;20222;-50
2022/04/03 00:40:23;;;;;;;3.63;2.57;;;;;20.60;101024.00;;;;2070659;28;20233;-50
2022/04/03 00:41:24;;;;;;;3.70;3.00;;;;;20.70;101027.00;;;;2070707;28;20679;-50
2022/04/03 00:42:24;;;;;;;3.03;2.67;;;;;20.60;101015.00;;;;2070711;28;20207;-50
2022/04/03 00:43:25;;;;;;;3.00;2.70;;;;;20.70;101022.00;;;;2070595;28;20713;-49
2022/04/03 00:44:25;;;;;;;4.00;2.97;;;;;20.70;101018.00;;;;2070542;28;20222;-49
2022/04/03 00:45:26;;;;;;;2.90;2.60;;;;;20.60;101020.00;;;;2068958;28;20316;-48
2022/04/03 00:46:27;;;;;;;2.90;2.53;;;;;20.60;101017.00;;;;2069903;28;20213;-51
2022/04/03 00:47:27;;;;;;;4.77;2.70;;;;;20.60;101020.00;;;;2069484;28;20293;-51
2022/04/03 00:48:27;;;;;;;3.03;2.40;;;;;20.60;101024.00;;;;2061729;28;20261;-49
2022/04/03 00:49:28;;;;;;;3.30;2.60;;;;;20.60;101013.00;;;;2069662;28;20225;-51
2022/04/03 00:50:28;;;;;;;2.63;2.17;;;;;20.60;101022.00;;;;2077942;28;20213;-50
2022/04/03 00:51:28;;;;;;;2.57;2.37;;;;;20.60;101021.00;;;;2069842;28;20242;-51
2022/04/03 00:52:29;;;;;;;3.60;3.10;;;;;20.60;101020.00;;;;2069700;28;20622;-50
2022/04/03 00:53:29;;;;;;;2.90;2.43;;;;;20.60;101023.00;;;;2070620;28;20206;-52
2022/04/03 00:54:29;;;;;;;3.57;2.53;;;;;20.60;101021.00;;;;2070292;28;20276;-50
2022/04/03 00:55:30;;;;;;;2.83;2.40;;;;;20.60;101025.00;;;;2069860;28;20214;-50
2022/04/03 00:56:31;;;;;;;2.43;2.23;;;;;20.60;101027.00;;;;2069759;28;20289;-51
2022/04/03 00:57:32;;;;;;;2.50;2.30;;;;;20.60;101010.00;;;;2069849;28;20233;-50
2022/04/03 00:58:32;;;;;;;2.30;2.10;;;;;20.60;101011.00;;;;2061365;28;20449;-50
2022/04/03 00:59:34;;;;;;;2.60;2.40;;;;;20.60;101023.00;;;;2061579;28;20246;-49
2022/04/03 01:00:34;;;;;;;2.75;2.10;;;;;20.60;101021.00;;;;2074905;28;20209;-50
2022/04/03 01:01:35;;;;;;;3.00;2.70;;;;;20.60;101021.00;;;;2078800;28;20233;-50
2022/04/03 01:02:35;;;;;;;2.90;2.33;;;;;20.60;101021.00;;;;2078113;28;20248;-50
2022/04/03 01:03:36;;;;;;;2.90;2.70;;;;;20.60;101021.00;;;;2078033;28;20284;-50
2022/04/03 01:04:39;;;;;;;2.90;2.10;;;;;20.60;101025.00;;;;2078534;28;20217;-51
2022/04/03 01:05:40;;;;;;;3.55;2.80;;;;;20.60;101023.00;;;;2077996;28;20272;-51
2022/04/03 01:06:40;;;;;;;4.05;2.45;;;;;20.60;101026.00;;;;2078609;28;20213;-50
2022/04/03 01:07:41;;;;;;;2.97;2.27;;;;;20.60;101021.00;;;;2078357;28;20235;-50
2022/04/03 01:08:44;;;;;;;3.50;2.60;;;;;20.60;101021.00;;;;2078669;28;20222;-50
2022/04/03 01:09:45;;;;;;;3.17;2.58;;;;;20.60;101029.00;;;;2078284;28;20225;-50
2022/04/03 01:10:45;;;;;;;2.40;2.20;;;;;20.60;101027.00;;;;2078433;28;20569;-51
2022/04/03 01:11:45;;;;;;;2.73;2.20;;;;;20.50;101022.00;;;;2078656;28;20217;-50
2022/04/03 01:12:46;;;;;;;2.50;2.30;;;;;20.60;101019.00;;;;2078597;28;20237;-51
2022/04/03 01:13:47;;;;;;;3.47;2.27;;;;;20.50;101025.00;;;;2078737;28;20256;-50
2022/04/03 01:14:47;;;;;;;3.10;2.22;;;;;20.50;101020.00;;;;2078292;28;20223;-50
2022/04/03 01:15:57;;;;;;;2.70;2.30;;;;;20.50;101020.00;;;;2077847;28;20218;-50
2022/04/03 01:16:57;;;;;;;2.72;2.20;;;;;20.50;101025.00;;;;2078586;28;20220;-50
2022/04/03 01:17:57;;;;;;;2.27;2.07;;;;;20.50;101018.00;;;;2078384;28;20220;-50
2022/04/03 01:18:58;;;;;;;3.00;2.17;;;;;20.50;101015.00;;;;2078533;28;20205;-50
2022/04/03 01:19:58;;;;;;;2.73;2.07;;;;;20.50;101024.00;;;;2078687;28;20206;-50
2022/04/03 01:20:59;;;;;;;3.17;2.27;;;;;20.50;101024.00;;;;2078466;28;20213;-50
2022/04/03 01:21:59;;;;;;;3.10;2.17;;;;;20.50;101021.00;;;;2078601;28;20261;-50
2022/04/03 01:23:00;;;;;;;2.93;2.30;;;;;20.50;101030.00;;;;2078607;28;20227;-50
2022/04/03 01:24:00;;;;;;;2.80;2.20;;;;;20.50;101029.00;;;;2078512;28;20229;-50
2022/04/03 01:25:01;;;;;;;2.27;1.80;;;;;20.50;101036.00;;;;2078582;28;20201;-50
2022/04/03 01:26:01;;;;;;;2.30;2.10;;;;;20.50;101028.00;;;;2077885;28;20704;-50
2022/04/03 01:27:02;;;;;;;3.23;1.90;;;;;20.50;101020.00;;;;2078404;28;20628;-50
2022/04/03 01:28:02;;;;;;;2.30;1.97;;;;;20.50;101015.00;;;;2078545;28;20213;-50
2022/04/03 01:29:02;;;;;;;2.20;1.97;;;;;20.50;101022.00;;;;2078370;28;20768;-50
2022/04/03 01:30:04;;;;;;;2.57;2.30;;;;;20.50;101022.00;;;;2078631;28;20210;-50
2022/04/03 01:31:04;;;;;;;3.03;2.25;;;;;20.50;101019.00;;;;2078344;28;20619;-50
2022/04/03 01:32:06;;;;;;;2.30;2.10;;;;;20.50;101019.00;;;;2078630;28;20309;-50
2022/04/03 01:33:06;;;;;;;2.10;1.90;;;;;20.50;101023.00;;;;2078580;28;20217;-50
2022/04/03 01:34:07;;;;;;;2.23;1.87;;;;;20.50;101016.00;;;;2070540;28;20217;-50
2022/04/03 01:35:07;;;;;;;2.20;2.00;;;;;20.50;101017.00;;;;2077782;28;20218;-50
2022/04/03 01:36:08;;;;;;;3.27;2.13;;;;;20.50;101011.00;;;;2077777;28;20688;-50
2022/04/03 01:37:08;;;;;;;2.00;1.80;;;;;20.50;101016.00;;;;2078485;28;20217;-50
2022/04/03 01:38:08;;;;;;;2.43;2.20;;;;;20.50;101015.00;;;;2078588;28;20218;-50
2022/04/03 01:39:11;;;;;;;2.13;1.80;;;;;20.50;101012.00;;;;2077883;28;20715;-50
2022/04/03 01:40:12;;;;;;;3.33;2.17;;;;;20.40;101018.00;;;;2077683;28;20217;-50
2022/04/03 01:41:13;;;;;;;3.93;2.53;;;;;20.40;101014.00;;;;2078457;28;20247;-50
2022/04/03 01:42:13;;;;;;;1.70;1.50;;;;;20.40;101013.00;;;;2078579;28;20295;-50
2022/04/03 01:43:13;;;;;;;2.53;1.90;;;;;20.40;101005.00;;;;2078281;28;20301;-50
2022/04/03 01:44:14;;;;;;;2.80;1.70;;;;;20.40;101018.00;;;;2078280;28;20216;-50
2022/04/03 01:45:14;;;;;;;2.37;1.67;;;;;20.50;101014.00;;;;2078538;28;20225;-50
2022/04/03 01:46:15;;;;;;;2.80;2.10;;;;;20.40;101013.00;;;;2077883;28;20445;-50
2022/04/03 01:47:15;;;;;;;2.33;1.87;;;;;20.40;101013.00;;;;2078443;28;20237;-50
2022/04/03 01:48:16;;;;;;;2.40;2.07;;;;;20.40;101009.00;;;;2078487;28;20229;-50
2022/04/03 01:49:16;;;;;;;2.20;1.83;;;;;20.40;101013.00;;;;2077660;28;20225;-50
2022/04/03 01:50:16;;;;;;;2.20;1.90;;;;;20.40;101013.00;;;;2077832;28;20576;-50
2022/04/03 01:51:17;;;;;;;2.27;2.03;;;;;20.40;101019.00;;;;2078129;28;20225;-50
2022/04/03 01:52:17;;;;;;;2.30;1.80;;;;;20.40;101014.00;;;;2078539;28;21112;-50
2022/04/03 01:53:17;;;;;;;1.93;1.70;;;;;20.40;101008.00;;;;2078577;28;20561;-50
2022/04/03 01:54:18;;;;;;;2.33;1.93;;;;;20.40;101018.00;;;;2078299;28;20678;-50
2022/04/03 01:55:18;;;;;;;2.27;1.90;;;;;20.40;101015.00;;;;2078229;28;20685;-50
2022/04/03 01:56:18;;;;;;;1.67;1.57;;;;;20.40;101012.00;;;;2077244;28;20741;-50
2022/04/03 01:57:19;;;;;;;2.30;1.77;;;;;20.40;101021.00;;;;2077613;28;20208;-50
2022/04/03 01:58:19;;;;;;;2.47;1.90;;;;;20.40;101019.00;;;;2077649;28;20213;-50
2022/04/03 01:59:19;;;;;;;2.37;1.90;;;;;20.40;101022.00;;;;2078500;28;20215;-50
2022/04/03 02:00:20;;;;;;;2.20;2.00;;;;;20.40;101013.00;;;;2078342;28;20262;-50
2022/04/03 02:01:21;;;;;;;2.97;2.03;;;;;20.40;101013.00;;;;2074052;28;20231;-54
2022/04/03 02:02:21;;;;;;;1.80;1.60;;;;;20.40;101016.00;;;;2078442;28;20260;-53
2022/04/03 02:03:21;;;;;;;2.30;1.90;;;;;20.40;101015.00;;;;2078601;28;20212;-49
2022/04/03 02:04:22;;;;;;;3.07;2.40;;;;;20.40;101012.00;;;;2077943;28;20221;-51
2022/04/03 02:05:23;;;;;;;2.20;2.00;;;;;20.40;101013.00;;;;2077488;28;20220;-49
2022/04/03 02:06:23;;;;;;;2.13;1.60;;;;;20.40;101018.00;;;;2078295;28;20562;-50
2022/04/03 02:07:24;;;;;;;2.30;1.73;;;;;20.40;101021.00;;;;2078247;28;20210;-51
2022/04/03 02:08:25;;;;;;;2.25;2.05;;;;;20.40;101016.00;;;;2077336;28;20562;-51
2022/04/03 02:09:25;;;;;;;2.17;1.97;;;;;20.40;101018.00;;;;2076931;28;20301;-50
2022/04/03 02:10:26;;;;;;;2.20;2.00;;;;;20.40;101016.00;;;;2079462;28;20628;-51
2022/04/03 02:11:26;;;;;;;2.30;1.73;;;;;20.40;101023.00;;;;2079924;28;20210;-50
2022/04/03 02:12:27;;;;;;;2.80;1.93;;;;;20.40;101020.00;;;;2079797;28;20236;-50
2022/04/03 02:13:27;;;;;;;1.90;1.60;;;;;20.40;101026.00;;;;2079764;28;20228;-50
2022/04/03 02:14:27;;;;;;;1.80;1.60;;;;;20.30;101021.00;;;;2079867;28;20268;-50
2022/04/03 02:15:28;;;;;;;2.90;1.90;;;;;20.30;101017.00;;;;2079140;28;20230;-50
2022/04/03 02:16:28;;;;;;;2.60;2.20;;;;;20.30;101022.00;;;;2079529;28;20230;-49
2022/04/03 02:17:28;;;;;;;1.83;1.67;;;;;20.40;101026.00;;;;2079445;28;20762;-51
2022/04/03 02:18:29;;;;;;;4.07;1.80;;;;;20.40;101020.00;;;;2078293;28;20581;-50
2022/04/03 02:19:29;;;;;;;2.47;1.97;;;;;20.30;101024.00;;;;2079272;28;21154;-51
2022/04/03 02:20:31;;;;;;;2.93;1.63;;;;;20.30;101019.00;;;;2079349;28;20886;-51
2022/04/03 02:21:31;;;;;;;2.05;1.85;;;;;20.30;101022.00;;;;2078934;28;20217;-51
2022/04/03 02:22:32;;;;;;;1.80;1.70;;;;;20.30;101024.00;;;;2079356;28;20218;-51
2022/04/03 02:23:32;;;;;;;2.17;1.80;;;;;20.30;101026.00;;;;2079382;28;20213;-51
2022/04/03 02:24:33;;;;;;;1.77;1.67;;;;;20.30;101029.00;;;;2079305;28;20221;-51
2022/04/03 02:25:33;;;;;;;1.60;1.50;;;;;20.30;101023.00;;;;2078483;28;20269;-51
2022/04/03 02:26:33;;;;;;;2.30;2.10;;;;;20.30;101023.00;;;;2079293;28;20263;-51
2022/04/03 02:27:34;;;;;;;1.70;1.37;;;;;20.30;101022.00;;;;2079217;28;20249;-51
2022/04/03 02:28:34;;;;;;;2.23;2.00;;;;;20.30;101025.00;;;;2079566;28;20214;-50
2022/04/03 02:29:34;;;;;;;2.30;1.73;;;;;20.30;101018.00;;;;2079631;28;20210;-51
2022/04/03 02:30:35;;;;;;;1.70;1.60;;;;;20.30;101034.00;;;;2079164;28;20710;-51
2022/04/03 02:31:36;;;;;;;2.30;1.83;;;;;20.30;101021.00;;;;2079266;28;20673;-50
2022/04/03 02:32:37;;;;;;;3.05;1.88;;;;;20.30;101020.00;;;;2078775;28;20225;-52
2022/04/03 02:33:37;;;;;;;2.50;2.17;;;;;20.30;101020.00;;;;2069122;28;20272;-51
2022/04/03 02:34:38;;;;;;;2.77;1.90;;;;;20.30;101026.00;;;;2086977;28;20255;-51
2022/04/03 02:35:38;;;;;;;2.93;1.90;;;;;20.30;101020.00;;;;2084515;28;20240;-51
2022/04/03 02:36:43;;;;;;;2.50;1.70;;;;;20.30;101023.00;;;;2079790;28;20305;-51
2022/04/03 02:37:43;;;;;;;2.65;1.92;;;;;20.30;101022.00;;;;2079615;28;21044;-50
2022/04/03 02:38:43;;;;;;;2.40;1.70;;;;;20.30;101017.00;;;;2079096;28;20213;-49
2022/04/03 02:39:44;;;;;;;2.30;1.90;;;;;20.30;101010.00;;;;2079162;28;20213;-51
2022/04/03 02:40:45;;;;;;;1.77;1.63;;;;;20.30;101022.00;;;;2079373;28;20231;-51
2022/04/03 02:41:45;;;;;;;1.83;1.53;;;;;20.30;101023.00;;;;2079461;28;20252;-51
2022/04/03 02:42:45;;;;;;;1.60;1.40;;;;;20.00;101019.00;;;;2075325;28;20219;-51
2022/04/03 02:43:46;;;;;;;2.10;1.90;;;;;20.20;101017.00;;;;2071462;28;20297;-50
2022/04/03 02:44:46;;;;;;;2.00;1.80;;;;;20.20;101023.00;;;;2071316;28;20301;-51
2022/04/03 02:45:47;;;;;;;2.00;1.50;;;;;20.30;101020.00;;;;2074225;28;20221;-50
2022/04/03 02:46:47;;;;;;;3.87;1.93;;;;;20.30;101016.00;;;;2079730;28;20221;-51
2022/04/03 02:47:52;;;;;;;2.20;1.90;;;;;20.20;101021.00;;;;2079535;28;20300;-51
2022/04/03 02:48:53;;;;;;;2.42;1.88;;;;;20.30;101020.00;;;;2079409;28;20311;-50
2022/04/03 02:49:53;;;;;;;1.87;1.70;;;;;20.30;101019.00;;;;2079741;28;20232;-51
2022/04/03 02:50:53;;;;;;;3.07;1.87;;;;;20.30;101026.00;;;;2079634;28;20293;-51
2022/04/03 02:51:54;;;;;;;2.00;1.70;;;;;20.30;100963.00;;;;2079508;28;20619;-50
2022/04/03 02:52:54;;;;;;;2.23;1.77;;;;;20.30;101027.00;;;;2079302;28;20717;-49
2022/04/03 02:53:55;;;;;;;2.00;1.70;;;;;20.20;101022.00;;;;2079062;28;20619;-51
2022/04/03 02:54:56;;;;;;;1.60;1.50;;;;;20.30;101019.00;;;;2079474;28;20221;-51
2022/04/03 02:55:57;;;;;;;2.00;1.55;;;;;20.20;101018.00;;;;2078431;28;20221;-51
2022/04/03 02:56:57;;;;;;;2.43;1.60;;;;;20.20;101025.00;;;;2079276;28;20205;-51
2022/04/03 02:57:57;;;;;;;2.27;1.63;;;;;20.20;101024.00;;;;2079750;28;20905;-51
2022/04/03 02:58:58;;;;;;;2.00;1.80;;;;;20.20;101015.00;;;;2079667;28;20213;-52
2022/04/03 02:59:58;;;;;;;1.70;1.47;;;;;20.20;101016.00;;;;2079380;28;20633;-51
2022/04/03 03:00:58;;;;;;;2.10;1.80;;;;;20.20;101022.00;;;;2079448;28;20581;-49
2022/04/03 03:01:59;;;;;;;2.80;1.70;;;;;20.20;101019.00;;;;2079634;28;20213;-49
2022/04/03 03:03:00;;;;;;;1.63;1.37;;;;;20.20;101026.00;;;;2079493;28;20220;-51
2022/04/03 03:04:00;;;;;;;3.30;1.80;;;;;20.20;101015.00;;;;2079085;28;20779;-51
2022/04/03 03:05:01;;;;;;;2.33;1.97;;;;;20.20;101012.00;;;;2079074;28;20229;-51
2022/04/03 03:06:01;;;;;;;3.23;1.70;;;;;20.20;101024.00;;;;2078824;28;20263;-51
2022/04/03 03:07:03;;;;;;;2.30;1.73;;;;;20.20;101017.00;;;;2079418;28;20296;-51
2022/04/03 03:08:04;;;;;;;1.85;1.60;;;;;20.20;101024.00;;;;2078726;28;20636;-50
2022/04/03 03:09:04;;;;;;;2.03;1.60;;;;;20.20;101022.00;;;;2078775;28;20336;-51
2022/04/03 03:10:06;;;;;;;2.33;2.07;;;;;20.20;101020.00;;;;2078903;28;20210;-51
2022/04/03 03:11:06;;;;;;;1.80;1.70;;;;;20.20;101022.00;;;;2071217;28;20716;-51
2022/04/03 03:12:07;;;;;;;1.70;1.60;;;;;20.20;101022.00;;;;2070543;28;20214;-52
2022/04/03 03:13:08;;;;;;;2.78;1.75;;;;;20.20;101019.00;;;;2069972;28;20290;-52
2022/04/03 03:14:09;;;;;;;1.63;1.40;;;;;20.20;101018.00;;;;2071289;28;20690;-51
2022/04/03 03:15:10;;;;;;;2.00;1.80;;;;;20.20;101010.00;;;;2070860;28;20214;-52
2022/04/03 03:16:10;;;;;;;2.25;1.95;;;;;20.20;101017.00;;;;2070426;28;20309;-49
2022/04/03 03:17:10;;;;;;;4.20;2.00;;;;;20.20;101022.00;;;;2071187;28;20585;-52
2022/04/03 03:18:11;;;;;;;1.93;1.70;;;;;20.20;101018.00;;;;2071439;28;20206;-51
2022/04/03 03:19:11;;;;;;;2.53;1.57;;;;;20.20;101022.00;;;;2071111;28;20405;-52
2022/04/03 03:20:12;;;;;;;2.33;1.77;;;;;20.20;101022.00;;;;2070481;28;20249;-49
2022/04/03 03:21:12;;;;;;;2.43;1.53;;;;;20.20;101018.00;;;;2070504;28;20218;-50
2022/04/03 03:22:12;;;;;;;1.57;1.47;;;;;20.20;101026.00;;;;2070252;28;20210;-52
2022/04/03 03:23:13;;;;;;;2.03;1.43;;;;;20.20;101021.00;;;;2071250;28;20234;-51
2022/04/03 03:24:13;;;;;;;2.50;1.93;;;;;20.20;101020.00;;;;2071165;28;20218;-52
2022/04/03 03:25:14;;;;;;;2.60;1.70;;;;;20.20;101018.00;;;;2070705;28;20633;-51
2022/04/03 03:26:15;;;;;;;1.90;1.80;;;;;20.20;101022.00;;;;2070529;28;20224;-51
2022/04/03 03:27:15;;;;;;;2.20;1.90;;;;;20.10;101022.00;;;;2071065;28;20637;-52
2022/04/03 03:28:15;;;;;;;3.70;1.90;;;;;20.20;101025.00;;;;2071235;28;20690;-51
2022/04/03 03:29:16;;;;;;;4.67;2.00;;;;;20.10;101018.00;;;;2071222;28;20744;-51
2022/04/03 03:30:16;;;;;;;2.17;1.63;;;;;20.10;101020.00;;;;2071150;28;20234;-50
2022/04/03 03:31:16;;;;;;;1.63;1.50;;;;;20.10;101021.00;;;;2070918;28;20203;-50
2022/04/03 03:32:17;;;;;;;1.97;1.70;;;;;20.10;101025.00;;;;2070962;28;20214;-49
2022/04/03 03:33:17;;;;;;;2.00;1.60;;;;;20.10;101022.00;;;;2071243;28;20207;-52
2022/04/03 03:34:17;;;;;;;1.97;1.73;;;;;20.10;101023.00;;;;2070925;28;20218;-52
2022/04/03 03:35:18;;;;;;;1.97;1.77;;;;;20.10;101023.00;;;;2070864;28;20257;-51
2022/04/03 03:36:18;;;;;;;2.27;1.70;;;;;20.10;101023.00;;;;2070063;28;20230;-50
2022/04/03 03:37:18;;;;;;;2.10;1.70;;;;;20.10;101018.00;;;;2070896;28;20210;-49
2022/04/03 03:38:19;;;;;;;1.77;1.67;;;;;20.10;101017.00;;;;2071160;28;20241;-51
2022/04/03 03:39:19;;;;;;;2.00;1.60;;;;;20.10;101013.00;;;;2070920;28;20702;-49
2022/04/03 03:40:19;;;;;;;2.00;1.80;;;;;20.10;101026.00;;;;2071057;28;20748;-49
2022/04/03 03:41:20;;;;;;;3.07;1.63;;;;;20.10;101018.00;;;;2071097;28;20587;-50
2022/04/03 03:42:20;;;;;;;2.23;2.00;;;;;20.10;101027.00;;;;2071186;28;20222;-51
2022/04/03 03:43:21;;;;;;;2.10;1.57;;;;;20.10;101027.00;;;;2071035;28;20214;-50
2022/04/03 03:44:22;;;;;;;2.43;1.90;;;;;20.10;101030.00;;;;2070976;28;20241;-51
2022/04/03 03:45:22;;;;;;;2.17;1.95;;;;;19.80;101041.00;;;;2069693;28;20887;-49
2022/04/03 03:46:23;;;;;;;1.60;1.50;;;;;20.10;101028.00;;;;2060211;28;20222;-51
2022/04/03 03:47:23;;;;;;;2.10;1.90;;;;;20.10;101031.00;;;;2069939;28;20651;-49
2022/04/03 03:48:24;;;;;;;3.10;1.97;;;;;20.10;101033.00;;;;2070858;28;20220;-49
2022/04/03 03:49:24;;;;;;;2.50;2.10;;;;;20.10;101029.00;;;;2071020;28;20237;-50
2022/04/03 03:50:25;;;;;;;2.90;2.13;;;;;20.00;101033.00;;;;2070814;28;20225;-51
2022/04/03 03:51:25;;;;;;;2.30;2.03;;;;;20.10;101039.00;;;;2070363;28;20218;-51
2022/04/03 03:52:25;;;;;;;3.73;2.17;;;;;20.10;101033.00;;;;2070581;28;20713;-49
2022/04/03 03:53:25;;;;;;;3.00;2.13;;;;;20.10;101043.00;;;;2070200;28;20686;-51
2022/04/03 03:54:26;;;;;;;2.13;1.90;;;;;20.00;101043.00;;;;2069920;28;20233;-50
2022/04/03 03:55:26;;;;;;;3.03;2.30;;;;;20.10;101036.00;;;;2068812;28;20403;-51
2022/04/03 03:56:27;;;;;;;3.33;2.37;;;;;20.00;101037.00;;;;2069711;28;20233;-51
2022/04/03 03:57:27;;;;;;;3.10;2.13;;;;;20.00;101036.00;;;;2070304;28;20232;-51
2022/04/03 03:58:27;;;;;;;2.80;1.70;;;;;20.00;100980.00;;;;2070330;28;20222;-51
2022/04/03 03:59:28;;;;;;;2.43;1.60;;;;;20.00;101036.00;;;;2070041;28;20218;-50
2022/04/03 04:00:28;;;;;;;1.90;1.80;;;;;20.00;101036.00;;;;2070264;28;20658;-49
2022/04/03 04:01:28;;;;;;;2.30;2.10;;;;;20.00;101033.00;;;;2070326;28;20214;-50
2022/04/03 04:02:29;;;;;;;2.90;1.90;;;;;20.00;101034.00;;;;2070409;28;20313;-51
2022/04/03 04:03:29;;;;;;;2.00;1.80;;;;;20.00;101027.00;;;;2070281;28;20218;-51
2022/04/03 04:04:30;;;;;;;3.07;2.13;;;;;20.00;101027.00;;;;2070195;28;20284;-51
2022/04/03 04:05:30;;;;;;;2.43;2.00;;;;;20.00;101030.00;;;;2068719;28;20570;-48
2022/04/03 04:06:30;;;;;;;3.17;2.20;;;;;20.00;101031.00;;;;2069929;28;20226;-51
2022/04/03 04:07:46;;;;;;;1.90;1.60;;;;;20.00;101034.00;;;;2070370;28;20225;-51
2022/04/03 04:08:47;;;;;;;2.25;1.88;;;;;20.00;101037.00;;;;2074724;28;20228;-51
2022/04/03 04:09:47;;;;;;;2.47;2.27;;;;;20.00;101032.00;;;;2078632;28;20214;-50
2022/04/03 04:10:47;;;;;;;2.03;1.67;;;;;20.00;101035.00;;;;2078509;28;20217;-51
2022/04/03 04:11:48;;;;;;;2.83;2.20;;;;;20.00;101032.00;;;;2078435;28;20201;-51
2022/04/03 04:12:48;;;;;;;2.23;1.70;;;;;20.00;101047.00;;;;2078319;28;20205;-51
2022/04/03 04:13:48;;;;;;;2.20;1.87;;;;;19.90;101036.00;;;;2076976;28;20213;-49
2022/04/03 04:14:49;;;;;;;3.03;1.90;;;;;20.00;101041.00;;;;2070290;28;20214;-50
2022/04/03 04:15:49;;;;;;;4.27;1.87;;;;;20.00;101030.00;;;;2076646;28;20209;-50
2022/04/03 04:16:49;;;;;;;2.07;1.87;;;;;20.00;101034.00;;;;2078130;28;20221;-51
2022/04/03 04:17:52;;;;;;;2.13;1.90;;;;;20.00;101053.00;;;;2078587;28;20212;-51
2022/04/03 04:18:52;;;;;;;2.20;2.00;;;;;20.00;101050.00;;;;2078524;28;20568;-51
2022/04/03 04:19:53;;;;;;;2.50;1.70;;;;;20.00;101044.00;;;;2078515;28;20228;-49
2022/04/03 04:20:53;;;;;;;2.30;2.03;;;;;20.00;101046.00;;;;2078575;28;21084;-48
2022/04/03 04:21:53;;;;;;;1.70;1.60;;;;;20.00;101043.00;;;;2077882;28;20629;-50
2022/04/03 04:22:54;;;;;;;2.20;1.70;;;;;19.90;101036.00;;;;2078436;28;20275;-51
2022/04/03 04:23:55;;;;;;;2.47;2.27;;;;;19.90;101048.00;;;;2078227;28;20222;-50
2022/04/03 04:24:55;;;;;;;3.07;1.60;;;;;19.90;101041.00;;;;2077975;28;20226;-49
2022/04/03 04:25:55;;;;;;;2.33;2.07;;;;;20.00;101043.00;;;;2077814;28;20275;-49
2022/04/03 04:26:56;;;;;;;2.40;2.00;;;;;20.00;101054.00;;;;2078124;28;20222;-51
2022/04/03 04:27:56;;;;;;;2.53;2.20;;;;;19.90;101042.00;;;;2078656;28;20216;-51
2022/04/03 04:28:56;;;;;;;2.20;1.70;;;;;19.90;101042.00;;;;2078373;28;20232;-51
2022/04/03 04:29:57;;;;;;;2.50;1.97;;;;;19.90;101045.00;;;;2076152;28;20240;-51
2022/04/03 04:30:57;;;;;;;2.20;1.97;;;;;19.90;101049.00;;;;2078675;28;20225;-52
2022/04/03 04:31:57;;;;;;;2.20;1.90;;;;;19.90;101041.00;;;;2077897;28;20708;-51
2022/04/03 04:32:58;;;;;;;2.30;2.10;;;;;19.90;101054.00;;;;2078289;28;20213;-51
2022/04/03 04:33:58;;;;;;;2.57;2.00;;;;;19.90;101050.00;;;;2077534;28;20221;-51
2022/04/03 04:34:58;;;;;;;2.40;1.97;;;;;19.90;101057.00;;;;2077329;28;20284;-51
2022/04/03 04:35:59;;;;;;;2.57;2.37;;;;;19.90;101058.00;;;;2077658;28;20245;-50
2022/04/03 04:36:59;;;;;;;3.50;2.37;;;;;19.90;101059.00;;;;2078215;28;20276;-50
2022/04/03 04:38:00;;;;;;;2.37;1.77;;;;;19.90;101050.00;;;;2077742;28;20213;-50
2022/04/03 04:39:00;;;;;;;3.50;2.10;;;;;19.90;101043.00;;;;2077490;28;20312;-50
2022/04/03 04:40:01;;;;;;;2.87;1.93;;;;;19.90;101048.00;;;;2077751;28;20457;-51
2022/04/03 04:41:01;;;;;;;2.10;1.90;;;;;19.90;101040.00;;;;2078427;28;20678;-50
2022/04/03 04:42:02;;;;;;;2.30;2.10;;;;;19.90;101051.00;;;;2077866;28;20237;-50
2022/04/03 04:43:02;;;;;;;3.27;2.10;;;;;19.80;101053.00;;;;2078353;28;20213;-50
2022/04/03 04:44:02;;;;;;;2.50;1.90;;;;;19.90;101060.00;;;;2072510;28;20225;-51
2022/04/03 04:45:04;;;;;;;2.10;1.87;;;;;19.90;101060.00;;;;2070507;28;20600;-50
2022/04/03 04:46:04;;;;;;;1.90;1.70;;;;;19.90;101055.00;;;;2069986;28;20257;-50
2022/04/03 04:47:05;;;;;;;3.00;2.00;;;;;19.90;101053.00;;;;2070211;28;20251;-50
2022/04/03 04:48:05;;;;;;;2.50;2.00;;;;;19.90;101053.00;;;;2070655;28;20218;-51
2022/04/03 04:49:06;;;;;;;2.77;2.40;;;;;19.90;101053.00;;;;2070458;28;20636;-51
2022/04/03 04:50:10;;;;;;;2.43;2.23;;;;;19.90;101063.00;;;;2069447;28;20697;-52
2022/04/03 04:51:10;;;;;;;2.38;2.03;;;;;19.90;101063.00;;;;2070717;28;20225;-51
2022/04/03 04:52:11;;;;;;;2.00;1.80;;;;;19.90;101067.00;;;;2070498;28;20263;-50
2022/04/03 04:53:11;;;;;;;3.07;2.00;;;;;19.80;101063.00;;;;2070597;28;20245;-51
2022/04/03 04:54:11;;;;;;;2.10;1.60;;;;;19.90;101055.00;;;;2070421;28;20220;-51
2022/04/03 04:55:13;;;;;;;2.30;2.00;;;;;19.80;101071.00;;;;2070627;28;20218;-51
2022/04/03 04:56:13;;;;;;;4.25;2.17;;;;;19.90;101065.00;;;;2069741;28;20776;-50
2022/04/03 04:57:13;;;;;;;2.60;1.97;;;;;19.90;101067.00;;;;2070384;28;20226;-49
2022/04/03 04:58:14;;;;;;;2.87;2.17;;;;;19.90;101065.00;;;;2070618;28;20229;-51
2022/04/03 04:59:14;;;;;;;1.90;1.70;;;;;19.90;101076.00;;;;2070254;28;20715;-50
2022/04/03 05:00:16;;;;;;;2.90;2.30;;;;;19.80;101031.00;;;;2070600;28;20233;-49